• Join FlightAware (Why Join?)
  • Login
  • US Flag 
09:43AM EDT


 

Airport Tracker/Info


-or-


 

Live Flight TrackerFlight Track Log ✈ SKW6338 ✈ 14-Jul-2013 ✈ KLAX - KSAN

Flight Track Log - Related Links

Times and Time Zones

All times are in EDT time to prevent confusion due to time zone crossing. See the SKW6338 flight status page for this flight to view local times or setup timezone preferences in your user account.

Time Position Orientation Groundspeed Altitude Reporting Facility
EDT Latitude Longitude Course Direction KTS MPH feet Rate Location/Type
07:29PM 33.9000 -118.4667 138° Southeast 194 223 2,400  Level Southern California TRACON
07:30PM 33.8586 -118.4858 201° Southwest 199 229 4,000 1,440 Climbing Los Angeles Center
07:31PM 33.8783 -118.3448 141° Southeast  Level FlightAware Approximate
07:31PM 33.8075 -118.4736 169° South 204 235 5,400  Level Los Angeles Center
07:32PM 33.8152 -118.2800 140° Southeast  Level Estimated
07:32PM 33.7556 -118.4464 156° South 210 242 6,500  Level Los Angeles Center
07:33PM 33.7520 -118.2153 140° Southeast  Level Estimated
07:33PM 33.7008 -118.3906 140° Southeast 217 250 8,000  Level Los Angeles Center
07:34PM 33.6888 -118.1507 138° Southeast  Level Estimated
07:34PM 33.6544 -118.3450 141° Southeast 220 253 8,900  Level Los Angeles Center
07:35PM 33.6164 -118.2842 127° Southeast 230 265 9,000  Climbing Los Angeles Center
07:36PM 33.5728 -118.2047 123° Southeast 235 270 9,000  Level Los Angeles Center
07:37PM 33.5347 -118.1378 124° Southeast 240 276 9,000  Level Los Angeles Center
07:38PM 33.4986 -118.0719 123° Southeast 240 276 9,000  Level Los Angeles Center
07:39PM 33.4614 -118.0047 124° Southeast 240 276 9,000  Level Los Angeles Center
07:40PM 33.4247 -117.9372 123° Southeast 242 278 9,000  Level Los Angeles Center
07:41PM 33.3872 -117.8700 124° Southeast 242 278 9,000  Level Los Angeles Center
07:42PM 33.3422 -117.7917 124° Southeast 240 276 9,000  Level Los Angeles Center
07:43PM 33.3039 -117.7244 124° Southeast 243 280 9,000  Level Los Angeles Center
07:44PM 33.2669 -117.6572 123° Southeast 243 280 9,000  Level Los Angeles Center
07:45PM 33.2275 -117.5942 127° Southeast 239 275 9,000 -120 Level Los Angeles Center
07:46PM 33.1833 -117.5667 152° Southeast 241 277 8,900 -120 Descending Southern California TRACON
07:47PM 33.1333 -117.5167 140° Southeast 242 278 8,900 60 Level Southern California TRACON
07:47PM 33.1156 -117.5050 151° Southeast 240 276 9,000 -240 Climbing Los Angeles Center
07:48PM 33.0497 -117.4492 145° Southeast 241 277 8,600 -540 Descending Los Angeles Center
07:49PM 32.9900 -117.4000 145° Southeast 254 292 8,000 -600 Descending Los Angeles Center
07:50PM 32.9339 -117.3425 139° Southeast 264 304 7,400 -600 Descending Los Angeles Center
07:51PM 32.8869 -117.2753 130° Southeast 264 304 6,800 -600 Descending Los Angeles Center
07:52PM 32.8367 -117.2092 132° Southeast 267 307 6,200 -720 Descending Los Angeles Center
07:54PM 32.7822 -117.1333 130° Southeast 264 304 5,400 -780 Descending Los Angeles Center
07:55PM 32.7478 -117.0697 123° Southeast 239 275 4,600 -960 Descending Los Angeles Center
07:56PM 32.7053 -117.0325 144° Southeast 242 278 3,500 -1,080 Descending Los Angeles Center